Time;durP1;ratioP1;P1;durP2;ratioP2;P2;SDS_P1;SDS_P2;PMS_P1;PMS_P2;Temp;Humidity;BMP_temperature;BMP_pressure;BME280_temperature;BME280_humidity;BME280_pressure;Samples;Min_cycle;Max_cycle;Signal;HPM_P1;HPM_P2
2022/08/13 00:00:11;;;;;;;;;;;;;;;27.23;26.13;96540.97;4196653;28;6500;-71
2022/08/13 00:02:17;;;;;;;;;;;;;;;27.21;26.45;96549.44;4183661;28;5709;-70
2022/08/13 00:04:26;;;;;;;;;;;;;;;27.22;26.47;96556.47;4189114;28;5721;-71
2022/08/13 00:09:06;;;;;;;;;;;;;;;27.18;26.56;96546.50;4138057;28;5765;-71
2022/08/13 00:13:57;;;;;;;;;;;;;;;27.17;26.46;96550.31;4138959;28;6012;-71
2022/08/13 00:16:02;;;;;;;;;;;;;;;27.20;26.65;96553.25;4125314;28;5772;-70
2022/08/13 00:18:07;;;;;;;;;;;;;;;27.20;26.38;96552.44;4144877;28;5747;-71
2022/08/13 00:20:13;;;;;;;;;;;;;;;27.20;26.36;96553.25;4143263;28;6469;-70
2022/08/13 00:22:19;;;;;;;;;;;;;;;27.19;26.69;96551.66;4140254;28;5780;-70
2022/08/13 00:24:32;;;;;;;;;;;;;;;27.16;26.49;96546.00;4137657;28;5772;-70
2022/08/13 00:26:37;;;;;;;;;;;;;;;27.12;26.78;96539.59;4143299;28;5912;-70
2022/08/13 00:28:48;;;;;;;;;;;;;;;27.09;26.76;96548.34;4151931;28;6581;-70
2022/08/13 00:30:51;;;;;;;;;;;;;;;27.07;26.68;96545.94;4141340;28;5822;-70
2022/08/13 00:32:54;;;;;;;;;;;;;;;27.07;26.63;96540.53;4149699;28;5991;-70
2022/08/13 00:35:00;;;;;;;;;;;;;;;27.06;26.66;96538.09;4139458;28;5842;-71
2022/08/13 00:37:03;;;;;;;;;;;;;;;27.01;26.71;96536.28;4141448;28;5744;-71
2022/08/13 00:39:10;;;;;;;;;;;;;;;27.01;26.74;96547.13;4140741;28;5751;-71
2022/08/13 00:41:37;;;;;;;;;;;;;;;26.98;26.72;96534.19;4138726;28;5767;-71
2022/08/13 00:43:57;;;;;;;;;;;;;;;26.95;27.28;96543.69;4145415;28;8499;-72
2022/08/13 00:46:01;;;;;;;;;;;;;;;26.94;26.98;96538.59;4187975;28;5769;-70
2022/08/13 00:50:28;;;;;;;;;;;;;;;26.87;27.39;96543.63;4187850;28;5804;-70
2022/08/13 00:52:33;;;;;;;;;;;;;;;26.85;27.22;96538.53;4201781;28;5708;-70
2022/08/13 00:54:40;;;;;;;;;;;;;;;26.83;27.22;96548.03;4200718;28;5854;-70
2022/08/13 00:56:48;;;;;;;;;;;;;;;26.79;27.41;96544.34;4188635;28;6131;-70
2022/08/13 00:58:53;;;;;;;;;;;;;;;26.73;27.61;96545.53;4187785;28;5278;-70
2022/08/13 01:00:59;;;;;;;;;;;;;;;26.68;27.26;96544.53;4188701;28;5786;-70
2022/08/13 01:03:02;;;;;;;;;;;;;;;26.67;27.48;96545.66;4192082;28;5710;-70
2022/08/13 01:05:20;;;;;;;;;;;;;;;26.65;27.48;96536.22;4190750;28;5688;-70
2022/08/13 01:07:23;;;;;;;;;;;;;;;26.60;27.82;96539.03;4189919;28;5697;-70
2022/08/13 01:09:47;;;;;;;;;;;;;;;26.55;27.57;96547.25;4187273;28;5761;-70
2022/08/13 01:12:13;;;;;;;;;;;;;;;26.50;27.56;96541.94;4191127;28;5773;-71
2022/08/13 01:14:19;;;;;;;;;;;;;;;26.34;27.65;96538.69;4189388;28;5787;-70
2022/08/13 01:16:32;;;;;;;;;;;;;;;26.20;28.18;96532.47;4196724;28;5723;-70
2022/08/13 01:18:36;;;;;;;;;;;;;;;26.22;27.91;96530.25;4195471;28;5693;-71
2022/08/13 01:20:46;;;;;;;;;;;;;;;26.27;27.94;96535.56;4197567;28;5764;-71
2022/08/13 01:22:53;;;;;;;;;;;;;;;26.28;28.14;96540.72;4191392;28;5705;-71
2022/08/13 01:24:57;;;;;;;;;;;;;;;26.32;28.10;96540.91;4188509;28;5862;-71
2022/08/13 01:27:01;;;;;;;;;;;;;;;26.34;28.09;96544.09;4190140;28;5760;-71
2022/08/13 01:29:05;;;;;;;;;;;;;;;26.34;28.02;96541.41;4193496;28;5713;-70
2022/08/13 01:31:15;;;;;;;;;;;;;;;26.33;28.34;96540.59;4202184;28;5700;-69
2022/08/13 01:33:21;;;;;;;;;;;;;;;26.31;28.11;96539.31;4201612;28;5813;-70
2022/08/13 01:35:26;;;;;;;;;;;;;;;26.27;28.27;96538.28;4185524;28;5721;-70
2022/08/13 01:37:30;;;;;;;;;;;;;;;26.13;28.56;96538.25;4194917;28;5696;-69
2022/08/13 01:39:38;;;;;;;;;;;;;;;26.11;28.35;96543.97;4191234;28;5729;-70
2022/08/13 01:41:43;;;;;;;;;;;;;;;26.15;28.35;96535.25;4185764;28;5821;-70
2022/08/13 01:44:00;;;;;;;;;;;;;;;26.18;28.29;96538.19;4188214;28;6564;-69
2022/08/13 01:46:18;;;;;;;;;;;;;;;26.18;28.68;96540.09;4184918;28;6395;-70
2022/08/13 01:51:03;;;;;;;;;;;;;;;26.08;28.75;96538.38;4190898;28;5872;-70
2022/08/13 01:53:21;;;;;;;;;;;;;;;25.96;28.70;96541.56;4190233;28;6384;-70
2022/08/13 01:55:26;;;;;;;;;;;;;;;25.90;29.02;96534.59;4200406;28;6513;-70
2022/08/13 01:57:49;;;;;;;;;;;;;;;25.92;29.06;96529.69;4185968;28;5713;-70
2022/08/13 01:59:54;;;;;;;;;;;;;;;25.83;29.10;96539.63;4222339;28;6507;-70
2022/08/13 02:02:07;;;;;;;;;;;;;;;25.70;28.83;96541.16;4184943;28;5816;-72
2022/08/13 02:04:32;;;;;;;;;;;;;;;25.65;29.14;96540.41;4191737;28;5731;-70
2022/08/13 02:06:36;;;;;;;;;;;;;;;25.70;28.84;96543.06;4196505;28;5789;-71
2022/08/13 02:08:40;;;;;;;;;;;;;;;25.74;29.23;96547.59;4191807;28;5688;-71
2022/08/13 02:10:46;;;;;;;;;;;;;;;25.77;29.02;96535.38;4193225;28;5700;-70
2022/08/13 02:12:51;;;;;;;;;;;;;;;25.76;29.47;96537.28;4194259;28;6668;-70
2022/08/13 02:14:58;;;;;;;;;;;;;;;25.76;29.44;96541.91;4195511;28;5714;-70
2022/08/13 02:17:24;;;;;;;;;;;;;;;25.77;29.18;96535.38;4190852;28;5774;-70
2022/08/13 02:19:47;;;;;;;;;;;;;;;25.77;29.30;96541.59;4192228;28;5880;-71
2022/08/13 02:21:51;;;;;;;;;;;;;;;25.76;29.48;96539.19;4193882;28;5829;-70
2022/08/13 02:23:57;;;;;;;;;;;;;;;25.75;29.35;96543.00;4189388;28;5723;-70
2022/08/13 02:26:06;;;;;;;;;;;;;;;25.75;29.71;96553.81;4198417;28;5950;-70
2022/08/13 02:28:10;;;;;;;;;;;;;;;25.76;29.74;96548.13;4200197;28;7718;-70
2022/08/13 02:30:26;;;;;;;;;;;;;;;25.79;29.69;96549.41;4201200;28;5701;-70
2022/08/13 02:32:29;;;;;;;;;;;;;;;25.80;29.32;96548.31;4201234;28;6365;-70
2022/08/13 02:34:32;;;;;;;;;;;;;;;25.79;29.88;96550.22;4201668;28;5749;-71
2022/08/13 02:36:36;;;;;;;;;;;;;;;25.77;29.56;96544.31;4201285;28;5859;-71
2022/08/13 02:38:42;;;;;;;;;;;;;;;25.77;29.83;96548.91;4195493;28;5713;-69
2022/08/13 02:43:18;;;;;;;;;;;;;;;25.78;29.67;96548.63;4194916;28;5882;-70
2022/08/13 02:45:23;;;;;;;;;;;;;;;25.76;29.58;96555.44;4183857;28;5717;-69
2022/08/13 02:47:29;;;;;;;;;;;;;;;25.71;29.80;96550.09;4190654;28;5696;-70
2022/08/13 02:49:51;;;;;;;;;;;;;;;25.72;30.14;96554.44;4192011;28;5712;-70
2022/08/13 02:51:57;;;;;;;;;;;;;;;25.70;30.06;96549.28;4184079;28;5793;-70
2022/08/13 02:54:11;;;;;;;;;;;;;;;25.73;29.70;96556.84;4192646;28;5840;-71
2022/08/13 02:56:15;;;;;;;;;;;;;;;25.75;29.76;96556.53;4188982;28;5868;-71
2022/08/13 02:58:20;;;;;;;;;;;;;;;25.75;29.73;96548.41;4190123;28;6431;-71
2022/08/13 03:00:25;;;;;;;;;;;;;;;25.75;29.92;96548.41;4189495;28;5845;-71
2022/08/13 03:02:35;;;;;;;;;;;;;;;25.74;29.94;96547.59;4188552;28;5107;-70
2022/08/13 03:04:45;;;;;;;;;;;;;;;25.74;29.73;96541.38;4186129;28;5844;-71
2022/08/13 03:06:49;;;;;;;;;;;;;;;25.74;30.37;96546.81;4196985;28;5963;-71
2022/08/13 03:08:54;;;;;;;;;;;;;;;25.73;30.32;96548.72;4193806;28;5713;-71
2022/08/13 03:10:57;;;;;;;;;;;;;;;25.71;29.93;96550.09;4195514;28;5927;-71
2022/08/13 03:13:05;;;;;;;;;;;;;;;25.70;30.20;96556.59;4195751;28;5796;-71
2022/08/13 03:15:13;;;;;;;;;;;;;;;25.69;29.87;96553.09;4190233;28;5722;-71
2022/08/13 03:17:16;;;;;;;;;;;;;;;25.70;29.98;96562.81;4185816;28;6659;-72
2022/08/13 03:19:25;;;;;;;;;;;;;;;25.69;30.07;96561.22;4196995;28;5815;-71
2022/08/13 03:21:30;;;;;;;;;;;;;;;25.69;30.03;96566.63;4189877;28;5708;-71
2022/08/13 03:23:46;;;;;;;;;;;;;;;25.68;30.34;96553.34;4185483;28;5688;-71
2022/08/13 03:25:52;;;;;;;;;;;;;;;25.71;30.36;96561.75;4197165;28;5701;-71
2022/08/13 03:27:55;;;;;;;;;;;;;;;25.73;30.06;96562.25;4196626;28;5708;-71
2022/08/13 03:29:59;;;;;;;;;;;;;;;25.74;29.97;96561.16;4186244;28;5705;-71
2022/08/13 03:32:13;;;;;;;;;;;;;;;25.74;30.10;96561.16;4199243;28;5676;-71
2022/08/13 03:34:17;;;;;;;;;;;;;;;25.75;30.25;96556.53;4190632;28;5824;-71
2022/08/13 03:36:24;;;;;;;;;;;;;;;25.75;29.94;96561.94;4185433;28;5722;-71
2022/08/13 03:38:32;;;;;;;;;;;;;;;25.75;29.87;96561.94;4198903;28;5687;-71
2022/08/13 03:43:08;;;;;;;;;;;;;;;25.71;30.35;96561.75;4192863;28;5732;-69
2022/08/13 03:45:19;;;;;;;;;;;;;;;25.70;30.25;96556.59;4193497;28;5779;-70
2022/08/13 03:47:24;;;;;;;;;;;;;;;25.71;30.43;96563.63;4196764;28;5677;-70
2022/08/13 03:49:36;;;;;;;;;;;;;;;25.67;30.42;96560.69;4189332;28;6382;-70
2022/08/13 03:51:39;;;;;;;;;;;;;;;25.67;30.45;96562.59;4182985;28;5721;-70
2022/08/13 03:53:50;;;;;;;;;;;;;;;25.64;30.06;96560.47;4183322;28;5710;-70
2022/08/13 03:55:54;;;;;;;;;;;;;;;25.65;30.57;96564.78;4188690;28;5800;-70
2022/08/13 03:57:58;;;;;;;;;;;;;;;25.64;30.45;96563.97;4190689;28;5800;-70
2022/08/13 04:00:07;;;;;;;;;;;;;;;25.65;30.54;96571.00;4192762;28;5767;-70
2022/08/13 04:02:12;;;;;;;;;;;;;;;25.63;30.30;96567.78;4224741;28;5655;-70
2022/08/13 04:04:21;;;;;;;;;;;;;;;25.63;30.71;96567.00;4185717;28;5711;-70
2022/08/13 04:06:25;;;;;;;;;;;;;;;25.61;30.30;96569.19;4193169;28;5766;-69
2022/08/13 04:08:34;;;;;;;;;;;;;;;25.58;30.53;96564.34;4194021;28;5693;-69
2022/08/13 04:10:38;;;;;;;;;;;;;;;25.54;30.66;96564.94;4195888;28;5760;-69
2022/08/13 04:13:03;;;;;;;;;;;;;;;25.50;30.88;96569.34;4193028;28;5705;-69
2022/08/13 04:15:08;;;;;;;;;;;;;;;25.46;30.69;96571.00;4192496;28;5787;-69
2022/08/13 04:17:12;;;;;;;;;;;;;;;25.45;30.84;96560.47;4189198;28;5072;-69
2022/08/13 04:19:18;;;;;;;;;;;;;;;25.44;30.70;96564.28;4187236;28;6365;-69
2022/08/13 04:21:24;;;;;;;;;;;;;;;25.40;30.71;96568.69;4184822;28;5714;-69
2022/08/13 04:23:27;;;;;;;;;;;;;;;25.39;30.53;96564.38;4182950;28;6526;-70
2022/08/13 04:25:31;;;;;;;;;;;;;;;25.41;30.45;96575.72;4193446;28;5685;-70
2022/08/13 04:27:44;;;;;;;;;;;;;;;25.39;30.93;96578.72;4188877;28;5689;-70
2022/08/13 04:29:48;;;;;;;;;;;;;;;25.38;30.58;96571.69;4187836;28;6543;-69
2022/08/13 04:31:53;;;;;;;;;;;;;;;25.38;30.49;96577.09;4192069;28;5713;-70
2022/08/13 04:33:58;;;;;;;;;;;;;;;25.38;31.15;96577.09;4182495;28;5758;-70
2022/08/13 04:36:21;;;;;;;;;;;;;;;25.39;30.82;96575.19;4194064;28;5701;-70
2022/08/13 04:38:31;;;;;;;;;;;;;;;25.36;30.98;96573.88;4184073;28;7799;-69
2022/08/13 04:40:36;;;;;;;;;;;;;;;25.36;30.83;96581.97;4189328;28;5727;-69
2022/08/13 04:42:48;;;;;;;;;;;;;;;25.35;30.88;96579.56;4192616;28;5702;-70
2022/08/13 04:44:51;;;;;;;;;;;;;;;25.34;30.98;96583.38;4193313;28;5708;-70
2022/08/13 04:46:55;;;;;;;;;;;;;;;25.31;31.01;96579.38;4189595;28;5905;-70
2022/08/13 04:48:59;;;;;;;;;;;;;;;25.30;30.78;96580.47;4191847;28;5689;-69
2022/08/13 04:51:06;;;;;;;;;;;;;;;25.29;31.40;96567.22;4191642;28;5681;-70
2022/08/13 04:53:21;;;;;;;;;;;;;;;25.27;30.69;96577.53;4190822;28;5704;-69
2022/08/13 04:55:28;;;;;;;;;;;;;;;25.29;30.94;96573.44;4219702;28;5713;-69
2022/08/13 04:57:51;;;;;;;;;;;;;;;25.29;31.00;96573.44;4189142;28;6444;-69
2022/08/13 05:00:04;;;;;;;;;;;;;;;25.29;31.11;96572.63;4189181;28;5849;-69
2022/08/13 05:02:08;;;;;;;;;;;;;;;25.27;31.09;96577.53;4184343;28;5898;-69
2022/08/13 05:04:11;;;;;;;;;;;;;;;25.27;31.18;96575.63;4198336;28;5832;-70
2022/08/13 05:06:26;;;;;;;;;;;;;;;25.23;31.00;96574.59;4193352;28;5697;-69
2022/08/13 05:08:32;;;;;;;;;;;;;;;25.24;31.28;96576.19;4192301;28;5789;-70
2022/08/13 05:10:38;;;;;;;;;;;;;;;25.26;31.33;96576.75;4185661;28;5731;-70
2022/08/13 05:12:42;;;;;;;;;;;;;;;25.31;31.46;96586.69;4195189;28;5725;-70
2022/08/13 05:14:55;;;;;;;;;;;;;;;25.30;31.20;96580.47;4186689;28;5722;-70
2022/08/13 05:16:59;;;;;;;;;;;;;;;25.33;31.42;96581.78;4197435;28;5804;-70
2022/08/13 05:19:04;;;;;;;;;;;;;;;25.31;31.06;96579.38;4196328;28;5701;-70
2022/08/13 05:21:09;;;;;;;;;;;;;;;25.30;31.21;96577.75;4185263;28;5797;-70
2022/08/13 05:23:13;;;;;;;;;;;;;;;25.31;31.68;96587.47;4185376;28;5797;-70
2022/08/13 05:25:38;;;;;;;;;;;;;;;25.32;31.59;96583.66;4196293;28;7312;-70
2022/08/13 05:28:00;;;;;;;;;;;;;;;25.31;31.64;96584.78;4190915;28;5819;-70
2022/08/13 05:30:06;;;;;;;;;;;;;;;25.31;31.24;96587.47;4194480;28;6997;-70
2022/08/13 05:32:29;;;;;;;;;;;;;;;25.34;31.38;96586.88;4185696;28;5859;-70
2022/08/13 05:34:43;;;;;;;;;;;;;;;25.37;31.92;96594.44;4191779;28;5718;-70
2022/08/13 05:36:46;;;;;;;;;;;;;;;25.38;31.72;96593.34;4194791;28;5789;-70
2022/08/13 05:39:09;;;;;;;;;;;;;;;25.42;31.37;96590.84;4191973;28;5831;-70
2022/08/13 05:41:13;;;;;;;;;;;;;;;25.42;31.77;96591.66;4185577;28;5707;-70
2022/08/13 05:43:21;;;;;;;;;;;;;;;25.42;31.62;96593.56;4189316;28;6498;-70
2022/08/13 05:45:25;;;;;;;;;;;;;;;25.42;31.54;96591.66;4199815;28;5698;-70
2022/08/13 05:47:30;;;;;;;;;;;;;;;25.42;31.97;96594.34;4196366;28;5786;-70
2022/08/13 05:49:40;;;;;;;;;;;;;;;25.45;32.09;96599.16;4185593;28;5719;-70
2022/08/13 05:51:57;;;;;;;;;;;;;;;25.49;31.63;96600.22;4196427;28;5736;-70
2022/08/13 05:54:21;;;;;;;;;;;;;;;25.53;32.06;96595.81;4196370;28;7826;-70
2022/08/13 05:56:46;;;;;;;;;;;;;;;25.51;31.79;96595.31;4185216;28;5823;-70
2022/08/13 05:58:49;;;;;;;;;;;;;;;25.52;32.06;96599.63;4195877;28;5690;-70
2022/08/13 06:03:25;;;;;;;;;;;;;;;25.58;31.89;96594.13;4195471;28;5845;-71
2022/08/13 06:05:48;;;;;;;;;;;;;;;25.59;31.90;96593.00;4198409;28;5793;-70
2022/08/13 06:07:52;;;;;;;;;;;;;;;25.61;32.18;96588.94;4193192;28;5848;-71
2022/08/13 06:10:00;;;;;;;;;;;;;;;25.70;32.19;96584.47;4188179;28;5715;-71
2022/08/13 06:12:05;;;;;;;;;;;;;;;25.82;32.08;96587.56;4196959;28;5711;-70
2022/08/13 06:14:31;;;;;;;;;;;;;;;25.92;31.88;96585.75;4194251;28;7123;-71
2022/08/13 06:16:37;;;;;;;;;;;;;;;25.96;31.97;96587.59;4185755;28;6384;-70
2022/08/13 06:18:57;;;;;;;;;;;;;;;26.02;31.96;96591.00;4193594;28;5677;-70
2022/08/13 06:21:11;;;;;;;;;;;;;;;26.06;31.85;96592.03;4198077;28;5700;-70
2022/08/13 06:23:37;;;;;;;;;;;;;;;26.13;31.86;96600.56;4187637;28;5088;-70
2022/08/13 06:25:41;;;;;;;;;;;;;;;26.16;31.81;96591.84;4198780;28;6723;-70
2022/08/13 06:28:04;;;;;;;;;;;;;;;26.20;31.62;96594.78;4195079;28;5936;-70
2022/08/13 06:30:09;;;;;;;;;;;;;;;26.24;31.78;96590.34;4187078;28;5872;-70
2022/08/13 06:32:14;;;;;;;;;;;;;;;26.27;32.29;96587.84;4194363;28;5690;-71
2022/08/13 06:34:37;;;;;;;;;;;;;;;26.30;32.28;96597.31;4188513;28;5937;-71
2022/08/13 06:36:41;;;;;;;;;;;;;;;26.29;32.20;96596.50;4201415;28;5733;-70
2022/08/13 06:38:47;;;;;;;;;;;;;;;26.30;32.17;96597.31;4201308;28;5694;-70
2022/08/13 06:40:53;;;;;;;;;;;;;;;26.33;31.97;96607.53;4201731;28;5728;-70
2022/08/13 06:42:57;;;;;;;;;;;;;;;26.31;32.19;96609.75;4201264;28;5705;-70
2022/08/13 06:45:04;;;;;;;;;;;;;;;26.31;32.48;96615.19;4199930;28;5705;-70
2022/08/13 06:47:07;;;;;;;;;;;;;;;26.32;32.06;96609.44;4201000;28;5819;-70
2022/08/13 06:49:16;;;;;;;;;;;;;;;26.32;32.51;96608.66;4200803;28;5745;-70
2022/08/13 06:51:20;;;;;;;;;;;;;;;26.30;32.09;96608.16;4199963;28;5701;-70
2022/08/13 06:53:23;;;;;;;;;;;;;;;26.30;32.47;96611.66;4201360;28;5699;-70
2022/08/13 06:55:49;;;;;;;;;;;;;;;26.29;32.03;96612.75;4199724;28;5717;-70
2022/08/13 06:58:12;;;;;;;;;;;;;;;26.27;32.46;96609.53;4201145;28;5681;-70
2022/08/13 07:00:20;;;;;;;;;;;;;;;26.28;32.15;96619.28;4200715;28;5954;-70
2022/08/13 07:02:35;;;;;;;;;;;;;;;26.30;32.44;96614.38;4198241;28;5710;-70
2022/08/13 07:04:40;;;;;;;;;;;;;;;26.31;32.32;96615.19;4184092;28;5722;-70
2022/08/13 07:06:47;;;;;;;;;;;;;;;26.31;32.33;96607.03;4186658;28;5682;-70
2022/08/13 07:08:54;;;;;;;;;;;;;;;26.33;32.21;96602.13;4199041;28;5776;-70
2022/08/13 07:13:26;;;;;;;;;;;;;;;26.37;32.47;96614.78;4196928;28;5690;-70
2022/08/13 07:15:51;;;;;;;;;;;;;;;26.37;32.47;96608.56;4199012;28;6502;-70
2022/08/13 07:17:56;;;;;;;;;;;;;;;26.38;32.29;96610.97;4190294;28;5221;-70
2022/08/13 07:19:59;;;;;;;;;;;;;;;26.38;32.35;96604.75;4187911;28;5715;-70
2022/08/13 07:22:08;;;;;;;;;;;;;;;26.37;32.60;96608.56;4191881;28;5934;-70
2022/08/13 07:24:15;;;;;;;;;;;;;;;26.35;32.33;96610.75;4187441;28;5714;-70
2022/08/13 07:26:38;;;;;;;;;;;;;;;26.32;32.69;96614.06;4188595;28;5910;-71
2022/08/13 07:28:45;;;;;;;;;;;;;;;26.27;32.79;96612.22;4191366;28;5812;-71
2022/08/13 07:31:01;;;;;;;;;;;;;;;26.27;32.50;96609.53;4186076;28;5808;-70
2022/08/13 07:33:14;;;;;;;;;;;;;;;26.30;32.80;96616.28;4189480;28;5723;-70
2022/08/13 07:35:17;;;;;;;;;;;;;;;26.29;32.86;96611.97;4191360;28;5852;-70
2022/08/13 07:37:22;;;;;;;;;;;;;;;26.31;32.96;96615.19;4193692;28;5712;-70
2022/08/13 07:39:30;;;;;;;;;;;;;;;26.30;32.83;96617.09;4191706;28;6067;-72
2022/08/13 07:41:54;;;;;;;;;;;;;;;26.31;32.97;96620.59;4195229;28;5721;-70
2022/08/13 07:44:06;;;;;;;;;;;;;;;26.30;33.04;96616.28;4189554;28;5666;-70
2022/08/13 07:46:13;;;;;;;;;;;;;;;26.28;32.91;96615.78;4192953;28;5761;-70
2022/08/13 07:48:31;;;;;;;;;;;;;;;26.29;32.93;96617.38;4199197;28;5748;-70
2022/08/13 07:50:52;;;;;;;;;;;;;;;26.30;32.97;96619.00;4190125;28;6494;-70
2022/08/13 07:53:07;;;;;;;;;;;;;;;26.30;33.01;96622.50;4187407;28;5720;-70
2022/08/13 07:55:11;;;;;;;;;;;;;;;26.30;33.00;96619.00;4194892;28;5712;-70
2022/08/13 07:57:34;;;;;;;;;;;;;;;26.31;32.97;96628.72;4188954;28;5713;-70
2022/08/13 07:59:40;;;;;;;;;;;;;;;26.33;32.99;96629.22;4190011;28;5829;-70
2022/08/13 08:02:07;;;;;;;;;;;;;;;26.34;33.26;96620.00;4184287;28;5707;-70
2022/08/13 08:04:27;;;;;;;;;;;;;;;26.33;32.96;96624.59;4186375;28;5722;-69
2022/08/13 08:06:33;;;;;;;;;;;;;;;26.33;33.51;96623.81;4187495;28;5840;-70
2022/08/13 08:08:42;;;;;;;;;;;;;;;26.36;33.39;96628.63;4194871;28;5807;-70
2022/08/13 08:10:46;;;;;;;;;;;;;;;26.34;33.13;96628.13;4182792;28;5970;-70
2022/08/13 08:12:49;;;;;;;;;;;;;;;26.28;33.19;96626.63;4184114;28;5964;-70
2022/08/13 08:14:55;;;;;;;;;;;;;;;26.27;33.66;96624.97;4184044;28;5711;-70
2022/08/13 08:17:00;;;;;;;;;;;;;;;26.28;33.40;96626.63;4184338;28;5714;-69
2022/08/13 08:19:27;;;;;;;;;;;;;;;26.30;33.42;96621.69;4186491;28;5126;-70
2022/08/13 08:21:51;;;;;;;;;;;;;;;26.35;33.74;96632.44;4188714;28;5770;-70
2022/08/13 08:24:15;;;;;;;;;;;;;;;26.38;33.68;96626.44;4186432;28;5796;-68
2022/08/13 08:26:34;;;;;;;;;;;;;;;26.39;33.66;96633.50;4186076;28;5844;-70
2022/08/13 08:28:39;;;;;;;;;;;;;;;26.40;33.52;96630.47;4185123;28;6761;-70
2022/08/13 08:30:43;;;;;;;;;;;;;;;26.41;33.42;96628.56;4192760;28;5793;-70
2022/08/13 08:32:53;;;;;;;;;;;;;;;26.41;33.91;96634.00;4191615;28;5091;-70
2022/08/13 08:35:08;;;;;;;;;;;;;;;26.42;33.90;96632.88;4186415;28;5685;-70
2022/08/13 08:42:35;;;;;;;;;;;;;;;26.44;33.77;96630.69;4188549;28;5938;-70
2022/08/13 08:44:32;;;;;;;;;;;;;;;26.45;33.76;96642.31;4190052;28;5899;-71
2022/08/13 08:46:38;;;;;;;;;;;;;;;26.43;33.78;96636.41;4190031;28;5835;-71
2022/08/13 08:48:50;;;;;;;;;;;;;;;26.42;34.19;96638.31;4198782;28;5686;-71
2022/08/13 08:51:00;;;;;;;;;;;;;;;26.43;33.91;96634.50;4193901;28;5734;-72
2022/08/13 08:53:20;;;;;;;;;;;;;;;26.41;34.36;96631.28;4190749;28;5905;-71
2022/08/13 08:55:44;;;;;;;;;;;;;;;26.41;33.90;96631.28;4190152;28;5704;-69
2022/08/13 08:57:56;;;;;;;;;;;;;;;26.42;34.42;96626.66;4186461;28;5743;-69
2022/08/13 09:00:23;;;;;;;;;;;;;;;26.37;34.17;96631.06;4185001;28;5726;-70
2022/08/13 09:02:33;;;;;;;;;;;;;;;26.33;34.59;96631.94;4186186;28;5853;-71
2022/08/13 09:04:38;;;;;;;;;;;;;;;26.35;34.71;96629.72;4187461;28;5830;-70
2022/08/13 09:06:58;;;;;;;;;;;;;;;26.37;34.34;96627.53;4193099;28;5329;-69
2022/08/13 09:09:01;;;;;;;;;;;;;;;26.38;34.66;96626.44;4187206;28;5845;-69
2022/08/13 09:11:05;;;;;;;;;;;;;;;26.40;34.44;96621.56;4189205;28;5821;-70
2022/08/13 09:13:08;;;;;;;;;;;;;;;26.40;34.46;96625.06;4189911;28;5772;-69
2022/08/13 09:15:12;;;;;;;;;;;;;;;26.42;34.33;96622.06;4189728;28;5982;-70
2022/08/13 09:17:16;;;;;;;;;;;;;;;26.47;34.89;96623.84;4187113;28;5710;-71
2022/08/13 09:19:20;;;;;;;;;;;;;;;26.48;34.67;96620.03;4195657;28;7026;-71
2022/08/13 09:21:44;;;;;;;;;;;;;;;26.50;34.44;96626.75;4194376;28;5711;-71
2022/08/13 09:23:52;;;;;;;;;;;;;;;26.54;34.87;96627.78;4185721;28;5738;-70
2022/08/13 09:26:17;;;;;;;;;;;;;;;26.56;34.85;96625.56;4187849;28;5693;-70
2022/08/13 09:28:30;;;;;;;;;;;;;;;26.54;34.59;96629.69;4188768;28;5818;-71
2022/08/13 09:30:40;;;;;;;;;;;;;;;26.52;34.87;96624.59;4186093;28;5793;-70
2022/08/13 09:32:46;;;;;;;;;;;;;;;26.52;35.01;96631.91;4189175;28;5789;-70
2022/08/13 09:34:49;;;;;;;;;;;;;;;26.55;34.90;96636.72;4188238;28;5685;-71
2022/08/13 09:36:56;;;;;;;;;;;;;;;26.57;34.69;96627.19;4188702;28;6026;-71
2022/08/13 09:39:01;;;;;;;;;;;;;;;26.56;34.75;96628.28;4186950;28;5733;-71
2022/08/13 09:41:17;;;;;;;;;;;;;;;26.58;34.96;96631.50;4191636;28;5693;-71
2022/08/13 09:43:27;;;;;;;;;;;;;;;26.58;34.66;96625.28;4194436;28;5849;-71
2022/08/13 09:45:49;;;;;;;;;;;;;;;26.60;34.48;96632.00;4191795;28;5664;-71
2022/08/13 09:47:54;;;;;;;;;;;;;;;26.63;34.51;96634.13;4197084;28;5716;-69
2022/08/13 09:50:21;;;;;;;;;;;;;;;26.66;34.46;96633.53;4199249;28;5812;-70
2022/08/13 09:52:25;;;;;;;;;;;;;;;26.68;34.78;96625.88;4198475;28;6033;-70
2022/08/13 09:54:30;;;;;;;;;;;;;;;26.74;34.40;96620.38;4198511;28;5860;-71
2022/08/13 09:56:37;;;;;;;;;;;;;;;26.80;34.35;96627.31;4193325;28;5701;-70
2022/08/13 09:58:40;;;;;;;;;;;;;;;26.81;34.63;96618.06;4196685;28;5689;-70
2022/08/13 10:00:46;;;;;;;;;;;;;;;26.79;34.59;96614.84;4200479;28;5709;-71
2022/08/13 10:02:56;;;;;;;;;;;;;;;26.78;34.60;96614.03;4201784;28;5838;-71
2022/08/13 10:05:00;;;;;;;;;;;;;;;26.76;34.84;96605.41;4201155;28;5692;-71
2022/08/13 10:07:03;;;;;;;;;;;;;;;26.79;34.47;96612.13;4197877;28;5757;-70
2022/08/13 10:09:26;;;;;;;;;;;;;;;26.83;34.35;96610.41;4198487;28;5840;-70
2022/08/13 10:11:35;;;;;;;;;;;;;;;26.89;34.25;96603.81;4200379;28;5693;-70
2022/08/13 10:13:58;;;;;;;;;;;;;;;26.91;34.40;96609.72;4200750;28;5681;-70
2022/08/13 10:16:02;;;;;;;;;;;;;;;26.92;34.74;96608.63;4201146;28;5690;-70
2022/08/13 10:18:06;;;;;;;;;;;;;;;26.96;34.44;96598.78;4200968;28;6482;-70
2022/08/13 10:20:13;;;;;;;;;;;;;;;26.98;34.44;96602.00;4201061;28;7748;-70
2022/08/13 10:22:17;;;;;;;;;;;;;;;27.01;34.36;96601.38;4201245;28;5796;-70
2022/08/13 10:24:26;;;;;;;;;;;;;;;27.00;34.34;96599.78;4201309;28;6011;-71
2022/08/13 10:26:29;;;;;;;;;;;;;;;26.97;34.24;96600.38;4201138;28;6557;-70
2022/08/13 10:28:35;;;;;;;;;;;;;;;27.00;34.48;96597.06;4200913;28;5685;-70
2022/08/13 10:30:42;;;;;;;;;;;;;;;27.04;34.03;96591.84;4200560;28;5818;-70
2022/08/13 10:33:04;;;;;;;;;;;;;;;27.06;34.47;96590.44;4199167;28;5891;-70
2022/08/13 10:35:09;;;;;;;;;;;;;;;27.09;34.40;96591.75;4200710;28;5940;-70
2022/08/13 10:37:12;;;;;;;;;;;;;;;27.11;34.18;96592.25;4200447;28;5693;-70
2022/08/13 10:39:16;;;;;;;;;;;;;;;27.13;34.31;96588.13;4200570;28;5705;-69
2022/08/13 10:41:19;;;;;;;;;;;;;;;27.16;34.50;96592.94;4200864;28;5697;-70
2022/08/13 10:43:23;;;;;;;;;;;;;;;27.16;34.54;96584.78;4200297;28;5709;-69
2022/08/13 10:45:29;;;;;;;;;;;;;;;27.15;34.40;96585.91;4200933;28;5799;-69
2022/08/13 10:47:34;;;;;;;;;;;;;;;27.18;34.73;96585.31;4200641;28;5697;-69
2022/08/13 10:49:58;;;;;;;;;;;;;;;27.20;34.32;96590.44;4199990;28;7392;-70
2022/08/13 10:52:01;;;;;;;;;;;;;;;27.21;34.32;96589.31;4196871;28;5693;-70
2022/08/13 10:54:07;;;;;;;;;;;;;;;27.18;34.63;96584.50;4197218;28;5913;-70
2022/08/13 10:56:32;;;;;;;;;;;;;;;27.19;34.57;96576.06;4200374;28;5274;-70
2022/08/13 10:58:36;;;;;;;;;;;;;;;27.21;34.67;96570.34;4200575;28;5829;-70
2022/08/13 11:00:50;;;;;;;;;;;;;;;27.24;34.23;96567.81;4199974;28;5689;-70
2022/08/13 11:02:56;;;;;;;;;;;;;;;27.25;34.47;96574.03;4199813;28;5721;-70
2022/08/13 11:05:01;;;;;;;;;;;;;;;27.25;34.22;96569.41;4200146;28;5685;-70
2022/08/13 11:07:04;;;;;;;;;;;;;;;27.26;34.23;96571.00;4198913;28;5704;-69
2022/08/13 11:09:10;;;;;;;;;;;;;;;27.25;34.21;96563.97;4200355;28;5816;-70
2022/08/13 11:11:29;;;;;;;;;;;;;;;27.28;34.24;96568.78;4200095;28;5733;-70
2022/08/13 11:13:52;;;;;;;;;;;;;;;27.31;33.89;96569.31;4199898;28;5686;-71
2022/08/13 11:16:00;;;;;;;;;;;;;;;27.33;33.99;96569.81;4200129;28;6720;-70
2022/08/13 11:18:05;;;;;;;;;;;;;;;27.34;33.87;96557.84;4198863;28;6484;-69
2022/08/13 11:20:18;;;;;;;;;;;;;;;27.37;34.13;96565.34;4200183;28;5863;-70
2022/08/13 11:22:28;;;;;;;;;;;;;;;27.40;33.96;96568.25;4198674;28;5805;-70
2022/08/13 11:24:31;;;;;;;;;;;;;;;27.43;34.13;96564.94;4195723;28;5709;-69
2022/08/13 11:26:40;;;;;;;;;;;;;;;27.45;33.81;96561.91;4196202;28;5700;-69
2022/08/13 11:28:44;;;;;;;;;;;;;;;27.48;34.00;96561.31;4199105;28;6364;-70
2022/08/13 11:30:49;;;;;;;;;;;;;;;27.48;33.85;96561.31;4199513;28;5689;-69
2022/08/13 11:32:54;;;;;;;;;;;;;;;27.48;33.82;96561.31;4199963;28;5760;-70
2022/08/13 11:34:59;;;;;;;;;;;;;;;27.48;33.96;96564.00;4199553;28;6396;-70
2022/08/13 11:37:04;;;;;;;;;;;;;;;27.48;33.97;96562.09;4199607;28;7782;-70
2022/08/13 11:39:14;;;;;;;;;;;;;;;27.47;34.17;96565.13;4199980;28;5800;-70
2022/08/13 11:41:18;;;;;;;;;;;;;;;27.47;34.19;96565.94;4199815;28;5701;-71
2022/08/13 11:43:22;;;;;;;;;;;;;;;27.49;34.02;96562.91;4199830;28;5692;-70
2022/08/13 11:45:46;;;;;;;;;;;;;;;27.51;33.98;96561.47;4199818;28;5686;-70
2022/08/13 11:47:51;;;;;;;;;;;;;;;27.54;33.85;96563.59;4190724;28;5701;-70